• Join FlightAware (Why Join?)
  • Login
  • US Flag 
06:34AM EDT


 

Airport Tracker/Info


-or-


 

Live Flight TrackerFlight Track Log ✈ EJA681 ✈ 26-Apr-2013 ✈ KEWR - KBWI

Flight Track Log - Related Links

Times and Time Zones

All times are in EDT time to prevent confusion due to time zone crossing. See the EJA681 flight status page for this flight to view local times or setup timezone preferences in your user account.

Time Position Orientation Groundspeed Altitude Reporting Facility
EDT Latitude Longitude Course Direction KTS MPH feet Rate Location/Type
11:46PM 40.7333 -74.1333 250° West 190 219 4,400  Level New York TRACON
11:48PM 40.7142 -74.2672 259° West 244 281 10,300 3,240 Climbing New York Center
11:49PM 40.6758 -74.3639 242° Southwest 280 322 13,100 3,060 Climbing New York Center
11:50PM 40.6308 -74.4681 240° Southwest 325 374 16,400 2,340 Climbing New York Center
11:51PM 40.5194 -74.6567 250° West  Level FlightAware Approximate
11:51PM 40.5856 -74.5806 242° Southwest 346 398 17,800  Level New York Center
11:52PM 40.5403 -74.6872 241° Southwest 361 415 18,000 60 Climbing New York Center
11:53PM 40.4858 -74.8178 241° Southwest 367 422 18,000  Level New York Center
11:54PM 40.4428 -74.9217 241° Southwest 367 422 18,000  Level New York Center
11:55PM 40.3717 -75.0425 232° Southwest 379 436 18,000  Level New York Center
11:56PM 40.2992 -75.1442 227° Southwest 385 443 18,000  Level New York Center
11:57PM 40.2289 -75.2406 226° Southwest 385 443 18,000  Level New York Center
11:58PM 40.1608 -75.3339 226° Southwest 385 443 18,000  Level New York Center
11:59PM 40.0814 -75.4453 227° Southwest 385 443 18,000  Level New York Center
12:00AM 40.0153 -75.5356 226° Southwest 385 443 18,000 -60 Level New York Center
12:01AM 39.9378 -75.6442 227° Southwest 385 443 17,900 -420 Descending New York Center
12:02AM 39.8861 -75.7353 234° Southwest 371 427 17,200 -1,440 Descending New York Center
12:04AM 39.7500 -75.9833 235° Southwest 355 409 13,400 -1,560 Descending Potomac TRACON
12:05AM 39.6833 -76.1000 233° Southwest 356 410 12,100 -1,380 Descending Potomac TRACON
12:06AM 39.6500 -76.1667 237° Southwest 355 409 11,000 -1,200 Descending Potomac TRACON
12:07AM 39.5667 -76.2500 218° Southwest 340 391 10,000 -540 Descending Potomac TRACON
12:08AM 39.5000 -76.3167 218° Southwest 334 384 10,000 -840 Level Potomac TRACON
12:09AM 39.4167 -76.3667 205° Southwest 289 333 8,500 -1,740 Descending Potomac TRACON
12:10AM 39.3500 -76.4167 210° Southwest 269 310 6,400 -1,620 Descending Potomac TRACON
12:11AM 39.2833 -76.4667 210° Southwest 233 268 5,100 -1,320 Descending Potomac TRACON
12:12AM 39.2167 -76.5000 201° Southwest 245 282 3,600 -1,140 Descending Potomac TRACON
12:13AM 39.1667 -76.5500 218° Southwest 204 235 2,700 -900 Descending Potomac TRACON
12:15AM 39.1333 -76.6167 237° Southwest 135 155 1,100 -840 Descending Potomac TRACON
12:16AM 39.1667 -76.6500 322° Northwest 124 143 400 -720 Descending Potomac TRACON
12:18AM 39.1667 -76.6667 270° West  Level FlightAware Approximate
12:25AM 39.1754 -76.6683 270° West  Level Estimated
12:26AM 39.1754 -76.6683 270° West  Level Estimated
12:27AM 39.1754 -76.6683 270° West  Level Estimated